createdAt,value
2023-02-22T00:02:10.495Z,6.63
2023-02-22T00:04:39.566Z,5.20
2023-02-22T00:07:06.903Z,4.60
2023-02-22T00:09:33.685Z,6.38
2023-02-22T00:12:10.101Z,4.50
2023-02-22T00:14:36.785Z,4.05
2023-02-22T00:17:03.435Z,4.82
2023-02-22T00:19:30.997Z,4.28
2023-02-22T00:21:58.015Z,4.35
2023-02-22T00:24:25.171Z,3.83
2023-02-22T00:26:55.803Z,4.22
2023-02-22T00:29:23.503Z,4.22
2023-02-22T00:31:50.581Z,3.97
2023-02-22T00:34:17.394Z,3.90
2023-02-22T00:36:50.425Z,4.32
2023-02-22T00:39:17.737Z,4.38
2023-02-22T00:41:44.531Z,4.20
2023-02-22T00:44:14.855Z,3.95
2023-02-22T00:46:41.548Z,3.47
2023-02-22T00:49:08.211Z,3.47
2023-02-22T00:51:45.188Z,3.80
2023-02-22T00:54:11.903Z,3.10
2023-02-22T00:56:38.550Z,3.50
2023-02-22T00:59:05.310Z,4.00
2023-02-22T01:01:32.326Z,4.15
2023-02-22T01:03:59.121Z,3.58
2023-02-22T01:06:26.053Z,3.35
2023-02-22T01:09:01.956Z,4.03
2023-02-22T01:11:29.187Z,4.32
2023-02-22T01:13:57.784Z,5.50
2023-02-22T01:16:30.608Z,4.22
2023-02-22T01:19:03.644Z,3.83
2023-02-22T01:21:36.312Z,3.28
2023-02-22T01:24:02.957Z,3.53
2023-02-22T01:26:29.562Z,3.90
2023-02-22T01:28:56.266Z,3.70
2023-02-22T01:31:24.026Z,3.88
2023-02-22T01:33:56.152Z,3.72
2023-02-22T01:36:22.826Z,3.60
2023-02-22T01:38:49.537Z,4.15
2023-02-22T01:41:21.164Z,3.97
2023-02-22T01:44:03.313Z,2.75
2023-02-22T01:46:31.590Z,3.50
2023-02-22T01:49:02.983Z,3.55
2023-02-22T01:51:37.824Z,3.13
2023-02-22T01:54:15.176Z,3.13
2023-02-22T01:57:00.100Z,3.53
2023-02-22T01:59:33.136Z,2.75
2023-02-22T02:02:13.103Z,3.67
2023-02-22T02:04:46.780Z,2.95
2023-02-22T02:08:09.125Z,3.13
2023-02-22T02:10:36.996Z,3.00
2023-02-22T02:13:03.985Z,3.25
2023-02-22T02:15:33.404Z,2.53
2023-02-22T02:18:06.585Z,2.75
2023-02-22T02:24:02.680Z,2.40
2023-02-22T02:26:49.866Z,2.67
2023-02-22T02:29:51.820Z,2.53
2023-02-22T02:32:43.865Z,2.53
2023-02-22T02:35:48.410Z,2.65
2023-02-22T02:38:56.472Z,2.47
2023-02-22T02:41:53.667Z,2.50
2023-02-22T02:44:46.201Z,2.33
2023-02-22T02:47:22.680Z,3.92
2023-02-22T02:50:16.897Z,6.38
2023-02-22T02:52:45.478Z,11.20
2023-02-22T02:55:14.245Z,5.10
2023-02-22T02:57:40.886Z,2.95
2023-02-22T03:00:57.852Z,2.90
2023-02-22T03:03:49.524Z,2.75
2023-02-22T03:06:43.921Z,2.58
2023-02-22T03:09:46.111Z,2.55
2023-02-22T03:12:31.621Z,3.58
2023-02-22T03:15:22.086Z,2.13
2023-02-22T03:18:03.218Z,2.50
2023-02-22T03:20:51.811Z,2.85
2023-02-22T03:23:48.276Z,2.05
2023-02-22T03:26:24.081Z,2.03
2023-02-22T03:29:07.713Z,1.73
2023-02-22T03:31:49.431Z,1.67
2023-02-22T03:34:40.244Z,2.03
2023-02-22T03:37:19.089Z,1.90
2023-02-22T03:39:47.882Z,2.10
2023-02-22T03:42:37.951Z,1.92
2023-02-22T03:45:19.488Z,2.00
2023-02-22T03:47:51.487Z,2.50
2023-02-22T03:50:35.633Z,2.20
2023-02-22T03:53:03.102Z,2.08
2023-02-22T03:55:31.369Z,1.95
2023-02-22T03:58:06.447Z,2.58
2023-02-22T04:00:34.825Z,1.83
2023-02-22T04:03:14.867Z,2.13
2023-02-22T04:05:41.619Z,2.35
2023-02-22T04:08:10.959Z,2.35
2023-02-22T04:10:37.995Z,2.22
2023-02-22T04:13:07.018Z,2.80
2023-02-22T04:15:33.760Z,2.60
2023-02-22T04:18:00.548Z,2.42
2023-02-22T04:20:27.543Z,2.25
2023-02-22T04:22:55.478Z,2.70
2023-02-22T04:25:23.754Z,3.03
2023-02-22T04:27:50.657Z,2.60
2023-02-22T04:30:19.122Z,2.75
2023-02-22T04:32:47.069Z,3.30
2023-02-22T04:35:13.792Z,3.78
2023-02-22T04:37:40.515Z,3.13
2023-02-22T04:40:08.192Z,2.65
2023-02-22T04:42:36.356Z,2.95
2023-02-22T04:45:04.782Z,2.88
2023-02-22T04:47:31.406Z,5.75
2023-02-22T04:49:58.111Z,10.95
2023-02-22T04:52:24.991Z,19.45
2023-02-22T04:54:51.822Z,14.20
2023-02-22T04:57:18.484Z,9.18
2023-02-22T04:59:45.260Z,3.00
2023-02-22T05:02:12.062Z,2.50
2023-02-22T05:04:39.597Z,2.63
2023-02-22T05:07:06.457Z,1.92
2023-02-22T05:09:33.135Z,1.92
2023-02-22T05:12:02.747Z,2.10
2023-02-22T05:14:38.464Z,2.20
2023-02-22T05:17:09.664Z,2.70
2023-02-22T05:19:37.232Z,2.60
2023-02-22T05:22:05.652Z,2.63
2023-02-22T05:25:08.954Z,2.38
2023-02-22T05:27:35.594Z,3.00
2023-02-22T05:30:02.280Z,2.53
2023-02-22T05:32:42.329Z,2.20
2023-02-22T05:35:09.109Z,5.45
2023-02-22T05:37:36.825Z,3.03
2023-02-22T05:40:07.589Z,2.90
2023-02-22T05:42:39.747Z,2.50
2023-02-22T05:45:06.994Z,2.30
2023-02-22T05:47:33.671Z,3.80
2023-02-22T05:50:01.689Z,2.63
2023-02-22T05:52:28.305Z,2.92
2023-02-22T05:54:57.325Z,3.10
2023-02-22T05:57:24.116Z,3.30
2023-02-22T05:59:50.938Z,3.75
2023-02-22T06:02:34.726Z,3.83
2023-02-22T06:05:01.465Z,3.42
2023-02-22T06:07:28.126Z,3.55
2023-02-22T06:10:02.738Z,3.92
2023-02-22T06:12:29.424Z,2.90
2023-02-22T06:14:56.188Z,4.13
2023-02-22T06:17:52.301Z,3.25
2023-02-22T06:20:21.492Z,2.58
2023-02-22T06:22:59.344Z,2.63
2023-02-22T06:25:32.646Z,3.17
2023-02-22T06:28:11.046Z,2.53
2023-02-22T06:30:45.848Z,3.13
2023-02-22T06:33:17.466Z,2.25
2023-02-22T06:35:45.257Z,2.60
2023-02-22T06:38:12.017Z,2.35
2023-02-22T06:40:38.779Z,2.40
2023-02-22T06:43:11.254Z,2.90
2023-02-22T06:45:37.901Z,3.72
2023-02-22T06:48:04.770Z,9.60
2023-02-22T06:50:33.742Z,36.17
2023-02-22T06:53:02.264Z,23.77
2023-02-22T06:55:31.778Z,8.20
2023-02-22T06:58:01.087Z,3.90
2023-02-22T07:00:29.495Z,3.88
2023-02-22T07:03:01.177Z,3.15
2023-02-22T07:05:36.059Z,3.22
2023-02-22T07:08:07.574Z,2.92
2023-02-22T07:10:36.189Z,2.72
2023-02-22T07:13:15.212Z,2.70
2023-02-22T07:15:41.970Z,2.58
2023-02-22T07:18:08.804Z,2.50
2023-02-22T07:20:44.008Z,2.30
2023-02-22T07:23:14.433Z,2.03
2023-02-22T07:25:41.113Z,2.40
2023-02-22T07:28:07.901Z,2.40
2023-02-22T07:30:34.659Z,2.17
2023-02-22T07:33:13.154Z,2.20
2023-02-22T07:35:55.910Z,1.98
2023-02-22T07:38:29.019Z,3.00
2023-02-22T07:41:09.362Z,3.60
2023-02-22T07:43:36.956Z,2.70
2023-02-22T07:46:03.935Z,6.90
2023-02-22T07:48:32.180Z,5.25
2023-02-22T07:51:03.865Z,3.13
2023-02-22T07:53:46.100Z,2.75
2023-02-22T07:56:12.783Z,2.35
2023-02-22T07:58:39.511Z,2.10
2023-02-22T08:01:11.184Z,2.20
2023-02-22T08:03:38.181Z,2.60
2023-02-22T08:06:07.335Z,2.20
2023-02-22T08:08:41.274Z,2.33
2023-02-22T08:11:11.135Z,2.30
2023-02-22T08:13:39.374Z,2.60
2023-02-22T08:16:06.177Z,2.42
2023-02-22T08:18:32.883Z,2.50
2023-02-22T08:20:59.519Z,2.33
2023-02-22T08:23:28.944Z,2.63
2023-02-22T08:26:20.706Z,2.90
2023-02-22T08:28:48.664Z,2.77
2023-02-22T08:31:15.675Z,2.47
2023-02-22T08:33:42.600Z,2.58
2023-02-22T08:36:09.649Z,2.05
2023-02-22T08:38:51.587Z,2.50
2023-02-22T08:41:18.596Z,2.30
2023-02-22T08:43:51.285Z,2.13
2023-02-22T08:46:18.158Z,2.20
2023-02-22T08:48:52.198Z,2.13
2023-02-22T08:51:21.568Z,1.80
2023-02-22T08:54:07.357Z,1.90
2023-02-22T08:56:34.032Z,2.20
2023-02-22T08:59:00.688Z,2.30
2023-02-22T09:01:33.791Z,2.40
2023-02-22T09:04:01.456Z,2.65
2023-02-22T09:06:29.130Z,2.58
2023-02-22T09:09:01.357Z,2.83
2023-02-22T09:13:56.576Z,3.30
2023-02-22T09:16:23.409Z,4.38
2023-02-22T09:18:50.288Z,4.85
2023-02-22T09:21:17.524Z,4.95
2023-02-22T09:23:53.494Z,4.30
2023-02-22T09:26:20.374Z,4.22
2023-02-22T09:28:47.009Z,4.25
2023-02-22T09:31:14.193Z,4.30
2023-02-22T09:33:47.537Z,4.00
2023-02-22T09:36:14.536Z,4.15
2023-02-22T09:38:41.366Z,3.90
2023-02-22T09:41:22.280Z,5.28
2023-02-22T09:44:07.251Z,4.60
2023-02-22T09:46:42.054Z,5.10
2023-02-22T09:49:34.398Z,5.90
2023-02-22T09:52:07.622Z,5.07
2023-02-22T09:54:40.838Z,4.07
2023-02-22T09:57:16.301Z,5.20
2023-02-22T10:00:01.096Z,4.55
2023-02-22T10:02:32.513Z,4.57
2023-02-22T10:05:08.278Z,4.40
2023-02-22T10:07:42.944Z,4.53
2023-02-22T10:10:17.638Z,5.30
2023-02-22T10:12:47.334Z,4.65
2023-02-22T10:15:37.186Z,5.07
2023-02-22T10:18:19.361Z,5.00
2023-02-22T10:20:57.736Z,5.43
2023-02-22T10:23:36.563Z,5.40
2023-02-22T10:26:17.508Z,4.63
2023-02-22T10:28:55.401Z,5.25
2023-02-22T10:31:30.211Z,5.43
2023-02-22T10:34:07.658Z,5.75
2023-02-22T10:36:39.024Z,6.40
2023-02-22T10:39:16.618Z,5.80
2023-02-22T10:41:50.521Z,4.72
2023-02-22T10:44:17.405Z,5.22
2023-02-22T10:46:45.699Z,5.82
2023-02-22T10:49:20.498Z,5.88
2023-02-22T10:51:56.053Z,6.15
2023-02-22T10:54:32.016Z,6.15
2023-02-22T10:57:00.145Z,6.03
2023-02-22T10:59:30.548Z,6.65
2023-02-22T11:01:57.646Z,6.28
2023-02-22T11:04:25.042Z,6.00
2023-02-22T11:07:19.512Z,5.88
2023-02-22T11:09:48.115Z,6.30
2023-02-22T11:12:21.484Z,6.82
2023-02-22T11:14:48.442Z,5.70
2023-02-22T11:17:31.737Z,7.40
2023-02-22T11:20:00.012Z,6.30
2023-02-22T11:22:32.678Z,5.97
2023-02-22T11:25:03.014Z,5.50
2023-02-22T11:27:40.428Z,6.20
2023-02-22T11:30:20.642Z,5.70
2023-02-22T11:32:53.258Z,5.47
2023-02-22T11:35:30.425Z,5.80
2023-02-22T11:38:17.096Z,6.60
2023-02-22T11:40:44.718Z,7.55
2023-02-22T11:43:17.928Z,6.75
2023-02-22T11:46:26.448Z,6.85
2023-02-22T11:49:04.550Z,6.60
2023-02-22T11:51:57.489Z,6.53
2023-02-22T11:54:33.371Z,6.40
2023-02-22T11:57:12.095Z,6.10
2023-02-22T12:00:16.095Z,7.15
2023-02-22T12:03:20.979Z,7.05
2023-02-22T12:05:59.614Z,6.40
2023-02-22T12:08:55.556Z,6.07
2023-02-22T12:11:30.662Z,6.32
2023-02-22T12:14:19.421Z,6.13
2023-02-22T12:17:04.648Z,6.47
2023-02-22T12:19:39.456Z,6.20
2023-02-22T12:22:13.045Z,6.45
2023-02-22T12:25:20.532Z,6.20
2023-02-22T12:28:00.385Z,5.88
2023-02-22T12:30:29.407Z,6.35
2023-02-22T12:33:00.336Z,6.30
2023-02-22T12:35:29.189Z,6.50
2023-02-22T12:38:17.556Z,6.68
2023-02-22T12:41:08.747Z,6.65
2023-02-22T12:43:41.682Z,6.38
2023-02-22T12:46:13.690Z,6.88
2023-02-22T12:51:46.714Z,7.38
2023-02-22T12:54:22.702Z,6.93
2023-02-22T12:57:11.787Z,6.85
2023-02-22T12:59:38.422Z,6.50
2023-02-22T13:02:20.551Z,5.93
2023-02-22T13:04:48.102Z,5.78
2023-02-22T13:07:20.987Z,6.38
2023-02-22T13:10:12.012Z,6.28
2023-02-22T13:13:25.668Z,6.28
2023-02-22T13:16:18.143Z,6.35
2023-02-22T13:21:44.681Z,6.63
2023-02-22T13:24:31.063Z,6.90
2023-02-22T13:27:03.118Z,6.32
2023-02-22T13:32:32.229Z,5.78
2023-02-22T13:35:22.575Z,7.95
2023-02-22T13:37:55.069Z,6.03
2023-02-22T13:41:12.237Z,5.72
2023-02-22T13:44:16.634Z,6.53
2023-02-22T13:46:58.286Z,5.85
2023-02-22T13:49:43.640Z,6.05
2023-02-22T13:52:29.892Z,6.30
2023-02-22T13:55:09.606Z,6.72
2023-02-22T13:57:48.680Z,6.63
2023-02-22T14:00:15.338Z,6.22
2023-02-22T14:03:06.586Z,7.22
2023-02-22T14:05:42.398Z,6.72
2023-02-22T14:08:36.802Z,6.40
2023-02-22T14:11:23.668Z,6.45
2023-02-22T14:13:55.132Z,5.85
2023-02-22T14:16:25.012Z,6.82
2023-02-22T14:19:22.914Z,5.68
2023-02-22T14:22:15.888Z,6.20
2023-02-22T14:24:47.472Z,5.97
2023-02-22T14:27:25.770Z,6.80
2023-02-22T14:29:56.210Z,6.65
2023-02-22T14:32:31.836Z,6.07
2023-02-22T14:35:02.051Z,6.95
2023-02-22T14:37:40.384Z,6.78
2023-02-22T14:40:36.050Z,6.93
2023-02-22T14:43:10.265Z,7.75
2023-02-22T14:45:45.943Z,8.82
2023-02-22T14:48:33.474Z,8.00
2023-02-22T14:51:19.031Z,8.35
2023-02-22T14:53:52.506Z,7.97
2023-02-22T14:56:26.801Z,8.13
2023-02-22T14:59:15.525Z,8.18
2023-02-22T15:01:55.278Z,7.60
2023-02-22T15:04:38.253Z,8.77
2023-02-22T15:07:29.100Z,7.70
2023-02-22T15:10:23.935Z,7.97
2023-02-22T15:13:11.054Z,8.18
2023-02-22T15:15:43.722Z,8.40
2023-02-22T15:18:23.390Z,8.60
2023-02-22T15:20:56.089Z,8.38
2023-02-22T15:23:30.341Z,7.95
2023-02-22T15:25:58.091Z,8.15
2023-02-22T15:28:28.661Z,8.38
2023-02-22T15:31:16.174Z,8.70
2023-02-22T15:33:43.032Z,9.65
2023-02-22T15:36:16.962Z,9.25
2023-02-22T15:38:52.655Z,9.02
2023-02-22T15:41:32.779Z,9.20
2023-02-22T15:44:01.774Z,8.75
2023-02-22T15:46:31.048Z,9.15
2023-02-22T15:49:24.372Z,9.10
2023-02-22T15:52:06.122Z,10.20
2023-02-22T15:54:45.653Z,9.75
2023-02-22T15:57:20.934Z,10.05
2023-02-22T15:59:53.601Z,8.68
2023-02-22T16:02:31.230Z,9.32
2023-02-22T16:05:11.585Z,8.82
2023-02-22T16:07:50.741Z,8.85
2023-02-22T16:10:22.980Z,9.45
2023-02-22T16:15:20.997Z,9.98
2023-02-22T16:18:01.407Z,8.63
2023-02-22T16:20:29.946Z,9.48
2023-02-22T16:22:57.945Z,10.05
2023-02-22T16:25:31.298Z,9.95
2023-02-22T16:28:03.007Z,9.20
2023-02-22T16:30:41.035Z,8.68
2023-02-22T16:33:21.689Z,9.18
2023-02-22T16:35:57.010Z,11.43
2023-02-22T16:38:27.442Z,9.63
2023-02-22T16:40:56.349Z,8.95
2023-02-22T16:43:31.675Z,10.35
2023-02-22T16:46:01.523Z,10.48
2023-02-22T16:48:31.683Z,13.13
2023-02-22T16:51:16.650Z,13.40
2023-02-22T16:53:44.599Z,14.45
2023-02-22T16:56:16.301Z,13.80
2023-02-22T16:58:51.687Z,13.45
2023-02-22T17:01:18.887Z,11.82
2023-02-22T17:03:46.514Z,11.57
2023-02-22T17:06:13.258Z,13.52
2023-02-22T17:08:41.136Z,17.08
2023-02-22T17:11:10.121Z,16.30
2023-02-22T17:13:37.704Z,12.90
2023-02-22T17:16:17.617Z,12.95
2023-02-22T17:18:45.869Z,13.27
2023-02-22T17:21:12.994Z,16.38
2023-02-22T17:23:39.894Z,17.27
2023-02-22T17:26:07.980Z,16.08
2023-02-22T17:28:34.606Z,13.35
2023-02-22T17:31:01.842Z,13.98
2023-02-22T17:33:32.733Z,13.95
2023-02-22T17:36:01.899Z,13.25
2023-02-22T17:38:30.251Z,12.18
2023-02-22T17:40:59.200Z,14.23
2023-02-22T17:43:32.410Z,14.02
2023-02-22T17:45:59.218Z,13.75
2023-02-22T17:48:26.317Z,14.50
2023-02-22T17:50:53.595Z,15.38
2023-02-22T17:53:25.419Z,15.07
2023-02-22T17:55:52.486Z,18.60
2023-02-22T17:58:19.456Z,23.45
2023-02-22T18:00:49.073Z,21.60
2023-02-22T18:03:25.329Z,21.00
2023-02-22T18:05:57.483Z,27.13
2023-02-22T18:08:28.930Z,31.70
2023-02-22T18:11:01.891Z,18.33
2023-02-22T18:13:28.711Z,14.85
2023-02-22T18:16:04.779Z,16.73
2023-02-22T18:18:32.384Z,16.27
2023-02-22T18:21:00.043Z,18.75
2023-02-22T18:23:28.847Z,17.65
2023-02-22T18:26:09.560Z,16.50
2023-02-22T18:28:37.132Z,16.83
2023-02-22T18:31:15.496Z,17.92
2023-02-22T18:33:48.820Z,16.88
2023-02-22T18:36:17.724Z,16.88
2023-02-22T18:38:44.735Z,16.50
2023-02-22T18:41:13.920Z,16.23
2023-02-22T18:43:41.172Z,19.40
2023-02-22T18:46:10.430Z,20.33
2023-02-22T18:48:38.523Z,19.95
2023-02-22T18:51:18.244Z,21.90
2023-02-22T18:53:47.519Z,22.23
2023-02-22T18:56:21.478Z,20.05
2023-02-22T18:58:52.974Z,17.65
2023-02-22T19:01:19.724Z,18.92
2023-02-22T19:03:49.576Z,18.65
2023-02-22T19:06:18.018Z,16.88
2023-02-22T19:08:45.883Z,19.48
2023-02-22T19:11:21.720Z,100.95
2023-02-22T19:13:51.064Z,44.00
2023-02-22T19:16:20.258Z,21.27
2023-02-22T19:18:48.712Z,24.23
2023-02-22T19:21:16.148Z,21.08
2023-02-22T19:23:46.022Z,26.55
2023-02-22T19:26:14.446Z,23.77
2023-02-22T19:28:41.161Z,22.05
2023-02-22T19:31:33.664Z,23.05
2023-02-22T19:36:28.852Z,22.48
2023-02-22T19:38:57.152Z,24.52
2023-02-22T19:41:24.162Z,24.77
2023-02-22T19:43:54.612Z,25.08
2023-02-22T19:46:21.737Z,21.27
2023-02-22T19:48:50.945Z,22.15
2023-02-22T19:51:20.296Z,23.25
2023-02-22T19:53:47.085Z,21.33
2023-02-22T19:56:16.837Z,22.33
2023-02-22T19:58:45.179Z,21.02
2023-02-22T20:01:23.399Z,22.55
2023-02-22T20:03:54.315Z,22.98
2023-02-22T20:06:25.493Z,26.17
2023-02-22T20:08:52.708Z,23.08
2023-02-22T20:11:19.495Z,21.70
2023-02-22T20:13:46.616Z,23.60
2023-02-22T20:16:16.400Z,28.05
2023-02-22T20:18:44.719Z,24.70
2023-02-22T20:21:20.428Z,23.73
2023-02-22T20:23:47.479Z,21.50
2023-02-22T20:26:17.687Z,21.13
2023-02-22T20:28:44.682Z,20.90
2023-02-22T20:31:13.759Z,20.45
2023-02-22T20:33:45.663Z,20.20
2023-02-22T20:36:17.974Z,18.75
2023-02-22T20:41:32.721Z,19.77
2023-02-22T20:44:01.338Z,19.77
2023-02-22T20:46:31.474Z,19.52
2023-02-22T20:49:00.302Z,22.50
2023-02-22T20:51:28.726Z,24.92
2023-02-22T20:53:59.744Z,21.23
2023-02-22T20:56:28.553Z,22.80
2023-02-22T20:58:57.704Z,25.70
2023-02-22T21:01:24.761Z,20.95
2023-02-22T21:03:51.629Z,23.20
2023-02-22T21:06:21.500Z,23.27
2023-02-22T21:08:57.026Z,26.80
2023-02-22T21:11:26.316Z,28.10
2023-02-22T21:13:53.469Z,26.27
2023-02-22T21:16:29.687Z,25.42
2023-02-22T21:18:59.778Z,27.20
2023-02-22T21:21:28.091Z,22.52
2023-02-22T21:23:57.178Z,23.58
2023-02-22T21:26:27.433Z,22.48
2023-02-22T21:28:56.414Z,21.38
2023-02-22T21:31:24.969Z,22.45
2023-02-22T21:33:54.062Z,23.48
2023-02-22T21:36:25.245Z,22.83
2023-02-22T21:38:57.160Z,26.27
2023-02-22T21:41:27.738Z,27.77
2023-02-22T21:43:56.295Z,26.88
2023-02-22T21:46:24.679Z,23.90
2023-02-22T21:48:51.544Z,23.30
2023-02-22T21:51:23.354Z,22.83
2023-02-22T21:53:52.917Z,23.98
2023-02-22T21:56:24.211Z,22.00
2023-02-22T21:58:59.187Z,23.23
2023-02-22T22:01:28.569Z,22.30
2023-02-22T22:03:56.528Z,22.48
2023-02-22T22:06:23.216Z,23.33
2023-02-22T22:08:50.460Z,23.42
2023-02-22T22:11:18.073Z,24.17
2023-02-22T22:13:45.031Z,22.65
2023-02-22T22:16:17.423Z,23.60
2023-02-22T22:18:45.874Z,23.98
2023-02-22T22:21:30.849Z,25.48
2023-02-22T22:23:57.606Z,23.90
2023-02-22T22:26:25.669Z,21.58
2023-02-22T22:28:56.149Z,22.75
2023-02-22T22:31:24.766Z,20.13
2023-02-22T22:33:52.257Z,23.50
2023-02-22T22:36:21.369Z,22.15
2023-02-22T22:38:48.314Z,21.20
2023-02-22T22:41:19.716Z,20.65
2023-02-22T22:43:47.178Z,21.40
2023-02-22T22:46:18.617Z,21.83
2023-02-22T22:48:47.312Z,21.50
2023-02-22T22:51:26.643Z,23.48
2023-02-22T22:53:54.792Z,21.80
2023-02-22T22:56:26.228Z,21.90
2023-02-22T22:58:55.320Z,32.47
2023-02-22T23:01:27.828Z,28.50
2023-02-22T23:03:59.350Z,27.45
2023-02-22T23:06:33.392Z,26.30
2023-02-22T23:09:11.227Z,27.75
2023-02-22T23:11:44.326Z,25.67
2023-02-22T23:14:13.338Z,25.05
2023-02-22T23:16:40.326Z,23.88
2023-02-22T23:19:09.625Z,23.95
2023-02-22T23:21:36.887Z,26.25
2023-02-22T23:24:09.358Z,23.73
2023-02-22T23:26:36.079Z,23.33
2023-02-22T23:29:04.874Z,25.05
2023-02-22T23:31:32.201Z,25.33
2023-02-22T23:33:59.465Z,23.88
2023-02-22T23:36:26.763Z,25.70
2023-02-22T23:38:54.144Z,25.58
2023-02-22T23:41:22.242Z,26.98
2023-02-22T23:43:49.187Z,25.85
2023-02-22T23:46:20.329Z,24.55
2023-02-22T23:48:54.755Z,25.98
2023-02-22T23:51:26.097Z,24.67
2023-02-22T23:53:55.722Z,24.65
2023-02-22T23:56:27.860Z,26.17
2023-02-22T23:58:57.096Z,25.65
